Whaleyville, Virginia
Current Conditions -  °F | °C
As of 4:55 AM on Thursday 29 Jan 2015 (Local Time) from KSFQ Reporting Station
Clear Clear  
Wind Chill: 21°   Ceiling: Unl
Heat Index: 21°   Visibility: 10mi
Dew Point: 16°   Wind: 0mph
Humidity: 81%   Direction: NA
Pressure: 30.33"   Gusts: NA
Location:  36.58°N, 76.6932°W
Report Text: KSFQ 290955Z AUTO 00000KT 10SM CLR M06/M09 A3033 RMK AO2 T10631090
Loading
Personal Weather Stations






























Interactive Weather Map New forecast layout! Learn more

10-Day Weather Forecast

Advertisements
Track Severe Weather on mobile